createdAt,value
2023-05-10T00:00:47.748Z,100.00
2023-05-10T00:03:18.772Z,100.00
2023-05-10T00:05:49.415Z,100.00
2023-05-10T00:08:19.085Z,100.00
2023-05-10T00:10:49.449Z,100.00
2023-05-10T00:13:20.021Z,100.00
2023-05-10T00:15:49.896Z,100.00
2023-05-10T00:18:19.807Z,100.00
2023-05-10T00:20:50.538Z,100.00
2023-05-10T00:23:20.252Z,100.00
2023-05-10T00:25:50.363Z,100.00
2023-05-10T00:28:20.278Z,100.00
2023-05-10T00:30:50.334Z,100.00
2023-05-10T00:33:20.861Z,100.00
2023-05-10T00:35:51.662Z,100.00
2023-05-10T00:38:21.613Z,100.00
2023-05-10T00:40:52.301Z,100.00
2023-05-10T00:43:27.954Z,100.00
2023-05-10T00:45:59.127Z,100.00
2023-05-10T00:48:31.054Z,100.00
2023-05-10T00:51:02.194Z,100.00
2023-05-10T00:53:33.746Z,100.00
2023-05-10T00:56:04.272Z,100.00
2023-05-10T00:58:34.801Z,100.00
2023-05-10T01:01:07.592Z,100.00
2023-05-10T01:03:38.582Z,100.00
2023-05-10T01:06:10.712Z,100.00
2023-05-10T01:08:41.620Z,100.00
2023-05-10T01:11:12.152Z,100.00
2023-05-10T01:13:47.171Z,100.00
2023-05-10T01:16:18.281Z,100.00
2023-05-10T01:18:50.089Z,100.00
2023-05-10T01:21:24.661Z,100.00
2023-05-10T01:24:34.761Z,100.00
2023-05-10T01:27:56.114Z,100.00
2023-05-10T01:30:58.593Z,100.00
2023-05-10T01:33:36.191Z,100.00
2023-05-10T01:36:13.489Z,100.00
2023-05-10T01:38:50.972Z,100.00
2023-05-10T01:41:29.750Z,100.00
2023-05-10T01:44:06.147Z,100.00
2023-05-10T01:46:38.957Z,100.00
2023-05-10T01:49:12.796Z,100.00
2023-05-10T01:51:46.637Z,100.00
2023-05-10T01:54:20.716Z,100.00
2023-05-10T01:56:57.582Z,100.00
2023-05-10T01:59:31.868Z,100.00
2023-05-10T02:02:05.296Z,100.00
2023-05-10T02:04:38.643Z,100.00
2023-05-10T02:07:10.281Z,100.00
2023-05-10T02:09:41.999Z,100.00
2023-05-10T02:12:15.598Z,100.00
2023-05-10T02:14:47.561Z,100.00
2023-05-10T02:17:20.132Z,100.00
2023-05-10T02:19:51.073Z,100.00
2023-05-10T02:22:23.859Z,100.00
2023-05-10T02:24:55.313Z,100.00
2023-05-10T02:27:28.599Z,100.00
2023-05-10T02:29:59.079Z,100.00
2023-05-10T02:32:31.096Z,100.00
2023-05-10T02:35:03.454Z,100.00
2023-05-10T02:37:33.560Z,100.00
2023-05-10T02:40:05.843Z,100.00
2023-05-10T02:42:37.084Z,100.00
2023-05-10T02:45:16.531Z,100.00
2023-05-10T02:47:46.743Z,100.00
2023-05-10T02:50:19.054Z,100.00
2023-05-10T02:52:52.917Z,100.00
2023-05-10T02:55:27.859Z,100.00
2023-05-10T02:57:59.911Z,100.00
2023-05-10T03:00:29.941Z,100.00
2023-05-10T03:03:00.438Z,100.00
2023-05-10T03:05:31.906Z,100.00
2023-05-10T03:08:05.512Z,100.00
2023-05-10T03:10:42.928Z,100.00
2023-05-10T03:13:30.594Z,100.00
2023-05-10T03:16:09.572Z,100.00
2023-05-10T03:18:49.179Z,100.00
2023-05-10T03:21:23.533Z,100.00
2023-05-10T03:24:06.626Z,100.00
2023-05-10T03:26:36.541Z,100.00
2023-05-10T03:29:18.508Z,100.00
2023-05-10T03:31:48.859Z,100.00
2023-05-10T03:34:24.499Z,100.00
2023-05-10T03:36:55.239Z,100.00
2023-05-10T03:39:25.797Z,100.00
2023-05-10T03:41:58.980Z,100.00
2023-05-10T03:44:28.665Z,100.00
2023-05-10T03:46:59.636Z,100.00
2023-05-10T03:49:30.286Z,100.00
2023-05-10T03:52:00.246Z,100.00
2023-05-10T03:54:30.164Z,100.00
2023-05-10T03:57:00.801Z,100.00
2023-05-10T03:59:31.432Z,100.00
2023-05-10T04:02:01.575Z,100.00
2023-05-10T04:04:32.261Z,100.00
2023-05-10T04:07:02.998Z,100.00
2023-05-10T04:09:33.216Z,100.00
2023-05-10T04:12:03.865Z,100.00
2023-05-10T04:14:34.376Z,100.00
2023-05-10T04:17:04.931Z,100.00
2023-05-10T04:19:35.233Z,100.00
2023-05-10T04:22:05.968Z,100.00
2023-05-10T04:24:35.878Z,100.00
2023-05-10T04:27:06.612Z,100.00
2023-05-10T04:29:36.942Z,100.00
2023-05-10T04:32:08.403Z,100.00
2023-05-10T04:34:38.822Z,100.00
2023-05-10T04:37:09.337Z,100.00
2023-05-10T04:39:42.000Z,100.00
2023-05-10T04:42:12.477Z,100.00
2023-05-10T04:44:42.358Z,100.00
2023-05-10T04:47:13.689Z,100.00
2023-05-10T04:49:44.034Z,100.00
2023-05-10T04:52:14.950Z,100.00
2023-05-10T04:54:44.704Z,100.00
2023-05-10T04:57:15.636Z,100.00
2023-05-10T04:59:46.356Z,100.00
2023-05-10T05:02:17.890Z,100.00
2023-05-10T05:04:49.236Z,100.00
2023-05-10T05:07:19.969Z,100.00
2023-05-10T05:09:50.489Z,100.00
2023-05-10T05:12:20.813Z,100.00
2023-05-10T05:14:52.156Z,100.00
2023-05-10T05:17:21.869Z,100.00
2023-05-10T05:19:51.990Z,100.00
2023-05-10T05:22:27.852Z,100.00
2023-05-10T05:24:59.809Z,100.00
2023-05-10T05:27:30.941Z,100.00
2023-05-10T05:30:01.471Z,100.00
2023-05-10T05:32:32.627Z,100.00
2023-05-10T05:35:02.941Z,100.00
2023-05-10T05:37:34.076Z,100.00
2023-05-10T05:40:08.081Z,100.00
2023-05-10T05:42:39.479Z,100.00
2023-05-10T05:45:13.599Z,100.00
2023-05-10T05:47:44.201Z,100.00
2023-05-10T05:50:15.113Z,100.00
2023-05-10T05:52:45.227Z,100.00
2023-05-10T05:55:15.674Z,100.00
2023-05-10T05:57:46.283Z,100.00
2023-05-10T06:00:19.062Z,100.00
2023-05-10T06:02:49.061Z,100.00
2023-05-10T06:05:21.335Z,100.00
2023-05-10T06:07:51.273Z,100.00
2023-05-10T06:10:22.281Z,100.00
2023-05-10T06:12:53.486Z,100.00
2023-05-10T06:15:23.691Z,100.00
2023-05-10T06:17:55.231Z,100.00
2023-05-10T06:20:26.194Z,100.00
2023-05-10T06:22:56.678Z,100.00
2023-05-10T06:25:27.420Z,100.00
2023-05-10T06:27:58.616Z,100.00
2023-05-10T06:30:28.893Z,100.00
2023-05-10T06:32:59.348Z,100.00
2023-05-10T06:35:30.760Z,100.00
2023-05-10T06:38:01.292Z,100.00
2023-05-10T06:40:31.616Z,100.00
2023-05-10T06:43:01.725Z,100.00
2023-05-10T06:45:32.457Z,100.00
2023-05-10T06:48:03.436Z,100.00
2023-05-10T06:50:34.951Z,100.00
2023-05-10T06:53:05.668Z,100.00
2023-05-10T06:55:36.415Z,100.00
2023-05-10T06:58:07.146Z,100.00
2023-05-10T07:00:40.854Z,100.00
2023-05-10T07:03:11.297Z,100.00
2023-05-10T07:05:41.697Z,100.00
2023-05-10T07:08:13.902Z,100.00
2023-05-10T07:10:45.730Z,100.00
2023-05-10T07:13:16.329Z,100.00
2023-05-10T07:15:48.032Z,100.00
2023-05-10T07:18:18.991Z,100.00
2023-05-10T07:20:49.277Z,100.00
2023-05-10T07:23:20.201Z,100.00
2023-05-10T07:25:52.170Z,100.00
2023-05-10T07:28:21.256Z,100.00
2023-05-10T07:30:51.817Z,100.00
2023-05-10T07:33:22.328Z,100.00
2023-05-10T07:35:53.197Z,100.00
2023-05-10T07:38:23.978Z,100.00
2023-05-10T07:40:54.122Z,100.00
2023-05-10T07:43:24.163Z,100.00
2023-05-10T07:45:56.124Z,100.00
2023-05-10T07:48:26.709Z,100.00
2023-05-10T07:50:57.027Z,100.00
2023-05-10T07:53:28.629Z,100.00
2023-05-10T07:56:00.552Z,100.00
2023-05-10T07:58:30.063Z,100.00
2023-05-10T08:00:59.736Z,100.00
2023-05-10T08:03:30.188Z,100.00
2023-05-10T08:06:00.753Z,100.00
2023-05-10T08:08:30.726Z,100.00
2023-05-10T08:11:01.013Z,100.00
2023-05-10T08:13:31.981Z,100.00
2023-05-10T08:16:02.126Z,100.00
2023-05-10T08:18:31.827Z,100.00
2023-05-10T08:21:01.760Z,100.00
2023-05-10T08:23:31.858Z,100.00
2023-05-10T08:26:02.753Z,100.00
2023-05-10T08:28:33.730Z,100.00
2023-05-10T08:31:03.949Z,100.00
2023-05-10T08:33:33.973Z,100.00
2023-05-10T08:36:05.332Z,100.00
2023-05-10T08:38:35.209Z,100.00
2023-05-10T08:41:06.467Z,100.00
2023-05-10T08:43:38.933Z,100.00
2023-05-10T08:46:11.365Z,100.00
2023-05-10T08:48:42.448Z,100.00
2023-05-10T08:51:16.937Z,100.00
2023-05-10T08:53:48.075Z,100.00
2023-05-10T08:56:18.950Z,100.00
2023-05-10T08:58:50.198Z,100.00
2023-05-10T09:01:21.443Z,100.00
2023-05-10T09:03:52.435Z,100.00
2023-05-10T09:06:22.896Z,100.00
2023-05-10T09:08:53.060Z,100.00
2023-05-10T09:11:23.962Z,100.00
2023-05-10T09:13:54.893Z,100.00
2023-05-10T09:16:26.083Z,100.00
2023-05-10T09:18:56.211Z,100.00
2023-05-10T09:21:27.918Z,100.00
2023-05-10T09:23:56.615Z,100.00
2023-05-10T09:26:26.718Z,100.00
2023-05-10T09:28:58.675Z,100.00
2023-05-10T09:31:44.117Z,100.00
2023-05-10T09:34:18.813Z,100.00
2023-05-10T09:37:01.264Z,100.00
2023-05-10T09:39:36.371Z,100.00
2023-05-10T09:42:07.992Z,100.00
2023-05-10T09:44:38.933Z,100.00
2023-05-10T09:47:09.243Z,100.00
2023-05-10T09:49:39.558Z,100.00
2023-05-10T09:52:11.114Z,100.00
2023-05-10T09:54:53.070Z,100.00
2023-05-10T09:57:22.402Z,100.00
2023-05-10T09:59:54.706Z,100.00
2023-05-10T10:02:30.652Z,100.00
2023-05-10T10:05:04.200Z,100.00
2023-05-10T10:07:35.307Z,100.00
2023-05-10T10:10:12.045Z,100.00
2023-05-10T10:12:43.426Z,100.00
2023-05-10T10:15:16.596Z,100.00
2023-05-10T10:17:49.130Z,100.00
2023-05-10T10:20:20.505Z,100.00
2023-05-10T10:22:49.822Z,100.00
2023-05-10T10:25:22.288Z,100.00
2023-05-10T10:28:06.423Z,100.00
2023-05-10T10:30:43.086Z,100.00
2023-05-10T10:33:37.799Z,100.00
2023-05-10T10:36:09.955Z,100.00
2023-05-10T10:39:00.156Z,100.00
2023-05-10T10:41:32.459Z,100.00
2023-05-10T10:44:38.476Z,100.00
2023-05-10T10:47:30.061Z,100.00
2023-05-10T10:50:09.781Z,100.00
2023-05-10T10:52:41.384Z,100.00
2023-05-10T10:55:14.081Z,100.00
2023-05-10T10:57:52.054Z,100.00
2023-05-10T11:00:33.045Z,100.00
2023-05-10T11:03:07.720Z,100.00
2023-05-10T11:05:41.439Z,100.00
2023-05-10T11:08:19.818Z,100.00
2023-05-10T11:11:07.398Z,100.00
2023-05-10T11:13:41.000Z,100.00
2023-05-10T11:16:16.995Z,100.00
2023-05-10T11:19:04.794Z,100.00
2023-05-10T11:21:36.046Z,100.00
2023-05-10T11:24:15.642Z,100.00
2023-05-10T11:26:46.333Z,100.00
2023-05-10T11:29:17.346Z,100.00
2023-05-10T11:31:49.016Z,100.00
2023-05-10T11:34:30.697Z,100.00
2023-05-10T11:37:02.776Z,100.00
2023-05-10T11:39:34.102Z,100.00
2023-05-10T11:42:04.659Z,100.00
2023-05-10T11:44:35.779Z,100.00
2023-05-10T11:47:07.741Z,100.00
2023-05-10T11:49:38.477Z,100.00
2023-05-10T11:52:11.575Z,100.00
2023-05-10T11:54:51.696Z,100.00
2023-05-10T11:57:28.402Z,100.00
2023-05-10T12:00:00.870Z,100.00
2023-05-10T12:02:31.477Z,100.00
2023-05-10T12:05:03.808Z,100.00
2023-05-10T12:07:35.520Z,100.00
2023-05-10T12:10:15.156Z,100.00
2023-05-10T12:12:48.039Z,100.00
2023-05-10T12:15:21.945Z,100.00
2023-05-10T12:17:53.003Z,100.00
2023-05-10T12:20:28.591Z,100.00
2023-05-10T12:23:02.549Z,100.00
2023-05-10T12:25:34.203Z,100.00
2023-05-10T12:28:07.749Z,100.00
2023-05-10T12:30:39.980Z,100.00
2023-05-10T12:33:15.421Z,100.00
2023-05-10T12:35:49.682Z,100.00
2023-05-10T12:38:30.298Z,100.00
2023-05-10T12:41:02.776Z,100.00
2023-05-10T12:43:34.114Z,99.79
2023-05-10T12:46:10.596Z,99.92
2023-05-10T12:48:42.100Z,100.00
2023-05-10T12:51:16.144Z,100.00
2023-05-10T12:53:49.606Z,99.00
2023-05-10T12:56:19.606Z,98.15
2023-05-10T12:58:49.981Z,97.75
2023-05-10T13:01:21.543Z,96.12
2023-05-10T13:03:51.642Z,95.68
2023-05-10T13:06:21.356Z,94.56
2023-05-10T13:08:52.293Z,94.45
2023-05-10T13:11:22.704Z,92.68
2023-05-10T13:13:53.356Z,92.53
2023-05-10T13:16:23.554Z,91.93
2023-05-10T13:18:54.033Z,91.58
2023-05-10T13:21:25.772Z,91.02
2023-05-10T13:23:55.067Z,88.83
2023-05-10T13:26:26.185Z,88.55
2023-05-10T13:28:56.528Z,87.56
2023-05-10T13:31:27.296Z,86.61
2023-05-10T13:33:57.767Z,86.71
2023-05-10T13:36:28.871Z,86.14
2023-05-10T13:38:59.234Z,85.71
2023-05-10T13:41:29.822Z,85.10
2023-05-10T13:44:00.498Z,85.39
2023-05-10T13:46:31.669Z,86.05
2023-05-10T13:49:02.583Z,85.43
2023-05-10T13:51:33.043Z,84.44
2023-05-10T13:54:03.234Z,84.76
2023-05-10T13:56:33.988Z,85.53
2023-05-10T13:59:03.696Z,86.73
2023-05-10T14:01:34.036Z,86.70
2023-05-10T14:04:07.728Z,87.50
2023-05-10T14:06:38.120Z,87.07
2023-05-10T14:09:07.840Z,87.60
2023-05-10T14:11:42.255Z,87.89
2023-05-10T14:14:13.187Z,87.33
2023-05-10T14:16:45.736Z,88.07
2023-05-10T14:19:15.883Z,88.52
2023-05-10T14:21:46.156Z,89.07
2023-05-10T14:24:16.083Z,88.89
2023-05-10T14:26:46.639Z,89.08
2023-05-10T14:29:16.485Z,88.84
2023-05-10T14:31:46.510Z,89.22
2023-05-10T14:34:16.792Z,89.57
2023-05-10T14:36:46.712Z,89.96
2023-05-10T14:39:16.850Z,89.70
2023-05-10T14:41:47.565Z,89.18
2023-05-10T14:44:17.884Z,88.93
2023-05-10T14:46:48.950Z,88.27
2023-05-10T14:49:18.668Z,89.08
2023-05-10T14:51:48.548Z,88.92
2023-05-10T14:54:18.040Z,88.47
2023-05-10T14:56:50.144Z,87.07
2023-05-10T14:59:21.654Z,85.80
2023-05-10T15:01:52.216Z,84.61
2023-05-10T15:04:23.322Z,84.45
2023-05-10T15:06:59.594Z,83.62
2023-05-10T15:09:29.231Z,83.05
2023-05-10T15:11:59.633Z,80.40
2023-05-10T15:14:30.897Z,80.33
2023-05-10T15:17:01.917Z,78.88
2023-05-10T15:19:33.762Z,78.19
2023-05-10T15:22:05.142Z,77.91
2023-05-10T15:24:34.730Z,77.13
2023-05-10T15:27:05.252Z,77.58
2023-05-10T15:29:36.397Z,77.68
2023-05-10T15:32:07.536Z,78.04
2023-05-10T15:34:37.441Z,77.64
2023-05-10T15:37:07.592Z,77.91
2023-05-10T15:39:37.690Z,78.48
2023-05-10T15:42:08.413Z,77.69
2023-05-10T15:44:39.159Z,76.96
2023-05-10T15:47:09.473Z,77.30
2023-05-10T15:49:39.388Z,75.34
2023-05-10T15:52:09.501Z,75.60
2023-05-10T15:54:39.843Z,75.99
2023-05-10T15:57:10.560Z,75.80
2023-05-10T15:59:41.300Z,75.89
2023-05-10T16:02:11.750Z,76.02
2023-05-10T16:04:44.148Z,76.74
2023-05-10T16:07:14.518Z,77.04
2023-05-10T16:09:43.720Z,77.24
2023-05-10T16:12:13.735Z,78.08
2023-05-10T16:14:43.847Z,78.17
2023-05-10T16:17:15.563Z,78.90
2023-05-10T16:19:45.124Z,79.83
2023-05-10T16:22:16.051Z,80.90
2023-05-10T16:24:45.493Z,80.98
2023-05-10T16:27:15.880Z,81.87
2023-05-10T16:29:47.004Z,81.50
2023-05-10T16:32:17.346Z,81.96
2023-05-10T16:34:47.264Z,83.33
2023-05-10T16:37:17.784Z,83.38
2023-05-10T16:39:47.696Z,84.07
2023-05-10T16:42:18.436Z,83.72
2023-05-10T16:44:49.578Z,84.31
2023-05-10T16:47:20.307Z,85.31
2023-05-10T16:49:51.254Z,86.32
2023-05-10T16:52:22.181Z,85.98
2023-05-10T16:54:51.827Z,85.50
2023-05-10T16:57:21.715Z,86.51
2023-05-10T16:59:52.958Z,87.50
2023-05-10T17:02:23.581Z,88.10
2023-05-10T17:04:55.645Z,87.53
2023-05-10T17:07:26.386Z,87.71
2023-05-10T17:09:58.533Z,88.86
2023-05-10T17:12:28.868Z,89.75
2023-05-10T17:14:59.192Z,89.94
2023-05-10T17:17:29.134Z,90.50
2023-05-10T17:20:00.242Z,91.58
2023-05-10T17:22:30.973Z,91.85
2023-05-10T17:25:01.296Z,91.87
2023-05-10T17:27:32.242Z,92.30
2023-05-10T17:30:02.764Z,93.28
2023-05-10T17:32:32.705Z,94.04
2023-05-10T17:35:03.270Z,95.12
2023-05-10T17:37:33.742Z,95.21
2023-05-10T17:40:05.487Z,96.56
2023-05-10T17:42:35.402Z,97.61
2023-05-10T17:45:09.746Z,98.08
2023-05-10T17:47:39.491Z,100.00
2023-05-10T17:50:11.734Z,100.00
2023-05-10T17:52:42.429Z,100.00
2023-05-10T17:55:13.330Z,100.00
2023-05-10T17:57:43.278Z,100.00
2023-05-10T18:00:17.200Z,100.00
2023-05-10T18:02:47.656Z,100.00
2023-05-10T18:05:19.070Z,100.00
2023-05-10T18:07:49.485Z,100.00
2023-05-10T18:10:20.842Z,100.00
2023-05-10T18:12:52.185Z,100.00
2023-05-10T18:15:22.502Z,100.00
2023-05-10T18:17:52.873Z,100.00
2023-05-10T18:20:24.571Z,100.00
2023-05-10T18:22:55.020Z,100.00
2023-05-10T18:25:26.450Z,100.00
2023-05-10T18:27:56.167Z,100.00
2023-05-10T18:30:27.305Z,100.00
2023-05-10T18:32:58.134Z,100.00
2023-05-10T18:35:28.770Z,100.00
2023-05-10T18:37:59.096Z,100.00
2023-05-10T18:40:29.633Z,100.00
2023-05-10T18:42:59.736Z,100.00
2023-05-10T18:45:30.689Z,100.00
2023-05-10T18:48:01.496Z,100.00
2023-05-10T18:50:32.348Z,100.00
2023-05-10T18:53:03.487Z,100.00
2023-05-10T18:55:34.432Z,100.00
2023-05-10T18:58:04.983Z,100.00
2023-05-10T19:00:35.483Z,100.00
2023-05-10T19:03:05.642Z,100.00
2023-05-10T19:05:35.310Z,100.00
2023-05-10T19:08:05.850Z,100.00
2023-05-10T19:10:35.959Z,100.00
2023-05-10T19:13:06.279Z,100.00
2023-05-10T19:15:36.837Z,100.00
2023-05-10T19:18:07.946Z,100.00
2023-05-10T19:20:40.840Z,100.00
2023-05-10T19:23:13.095Z,100.00
2023-05-10T19:25:43.019Z,100.00
2023-05-10T19:28:12.781Z,100.00
2023-05-10T19:30:43.040Z,100.00
2023-05-10T19:33:13.671Z,100.00
2023-05-10T19:35:44.517Z,100.00
2023-05-10T19:38:15.856Z,100.00
2023-05-10T19:40:49.609Z,100.00
2023-05-10T19:43:21.420Z,100.00
2023-05-10T19:45:52.149Z,100.00
2023-05-10T19:48:22.274Z,100.00
2023-05-10T19:50:53.202Z,100.00
2023-05-10T19:53:23.537Z,100.00
2023-05-10T19:55:56.720Z,100.00
2023-05-10T19:58:28.182Z,100.00
2023-05-10T20:00:58.446Z,100.00
2023-05-10T20:03:28.716Z,100.00
2023-05-10T20:05:59.243Z,100.00
2023-05-10T20:08:29.611Z,100.00
2023-05-10T20:11:02.230Z,100.00
2023-05-10T20:13:33.079Z,100.00
2023-05-10T20:16:04.627Z,100.00
2023-05-10T20:18:35.182Z,100.00
2023-05-10T20:21:06.099Z,100.00
2023-05-10T20:23:36.834Z,100.00
2023-05-10T20:26:06.942Z,100.00
2023-05-10T20:28:37.476Z,100.00
2023-05-10T20:31:07.214Z,100.00
2023-05-10T20:33:38.080Z,100.00
2023-05-10T20:36:09.644Z,100.00
2023-05-10T20:38:39.995Z,100.00
2023-05-10T20:41:10.315Z,100.00
2023-05-10T20:43:40.228Z,100.00
2023-05-10T20:46:10.217Z,100.00
2023-05-10T20:48:41.277Z,100.00
2023-05-10T20:51:11.601Z,100.00
2023-05-10T20:53:41.517Z,100.00
2023-05-10T20:56:11.854Z,100.00
2023-05-10T20:58:41.974Z,100.00
2023-05-10T21:01:12.297Z,100.00
2023-05-10T21:03:42.813Z,100.00
2023-05-10T21:06:12.238Z,100.00
2023-05-10T21:08:42.589Z,100.00
2023-05-10T21:11:12.762Z,100.00
2023-05-10T21:13:43.081Z,100.00
2023-05-10T21:16:13.232Z,100.00
2023-05-10T21:18:43.184Z,100.00
2023-05-10T21:21:13.573Z,100.00
2023-05-10T21:23:46.017Z,100.00
2023-05-10T21:26:14.894Z,100.00
2023-05-10T21:28:46.239Z,100.00
2023-05-10T21:31:16.803Z,100.00
2023-05-10T21:33:47.506Z,100.00
2023-05-10T21:36:18.516Z,100.00
2023-05-10T21:38:50.204Z,100.00
2023-05-10T21:41:21.345Z,100.00
2023-05-10T21:43:51.049Z,100.00
2023-05-10T21:46:21.287Z,100.00
2023-05-10T21:48:51.669Z,100.00
2023-05-10T21:51:22.020Z,100.00
2023-05-10T21:53:52.555Z,100.00
2023-05-10T21:56:23.093Z,100.00
2023-05-10T21:58:53.200Z,100.00
2023-05-10T22:01:23.139Z,100.00
2023-05-10T22:03:53.839Z,100.00
2023-05-10T22:06:24.588Z,100.00
2023-05-10T22:08:55.308Z,100.00
2023-05-10T22:11:25.633Z,100.00
2023-05-10T22:13:55.951Z,100.00
2023-05-10T22:16:26.933Z,100.00
2023-05-10T22:18:57.489Z,100.00
2023-05-10T22:21:28.148Z,100.00
2023-05-10T22:23:58.673Z,100.00
2023-05-10T22:26:28.796Z,100.00
2023-05-10T22:28:58.927Z,100.00
2023-05-10T22:31:29.466Z,100.00
2023-05-10T22:34:00.178Z,100.00
2023-05-10T22:36:30.087Z,100.00
2023-05-10T22:39:00.615Z,100.00
2023-05-10T22:41:30.736Z,100.00
2023-05-10T22:44:01.658Z,100.00
2023-05-10T22:46:32.668Z,100.00
2023-05-10T22:49:03.333Z,100.00
2023-05-10T22:51:33.654Z,100.00
2023-05-10T22:54:03.586Z,100.00
2023-05-10T22:56:33.692Z,100.00
2023-05-10T22:59:04.848Z,100.00
2023-05-10T23:01:35.006Z,100.00
2023-05-10T23:04:05.633Z,100.00
2023-05-10T23:06:36.414Z,100.00
2023-05-10T23:09:06.120Z,100.00
2023-05-10T23:11:36.243Z,100.00
2023-05-10T23:14:06.970Z,100.00
2023-05-10T23:16:37.972Z,100.00
2023-05-10T23:19:09.091Z,100.00
2023-05-10T23:21:39.173Z,100.00
2023-05-10T23:24:09.959Z,100.00
2023-05-10T23:26:40.640Z,100.00
2023-05-10T23:29:10.870Z,100.00
2023-05-10T23:31:44.771Z,100.00
2023-05-10T23:34:15.246Z,100.00
2023-05-10T23:36:45.005Z,100.00
2023-05-10T23:39:15.127Z,100.00
2023-05-10T23:41:45.029Z,100.00
2023-05-10T23:44:16.383Z,100.00
2023-05-10T23:46:46.514Z,100.00
2023-05-10T23:49:16.823Z,100.00
2023-05-10T23:51:47.152Z,100.00
2023-05-10T23:54:17.260Z,100.00
2023-05-10T23:56:49.717Z,100.00
2023-05-10T23:59:19.141Z,100.00
